sensor_id;sensor_type;location;lat;lon;timestamp;temperature;humidity
11536;DHT22;5824;49.336;8.652;2024-03-02T00:01:22;7.80;1.00
11536;DHT22;5824;49.336;8.652;2024-03-02T00:03:47;7.80;1.00
11536;DHT22;5824;49.336;8.652;2024-03-02T00:06:13;7.80;1.00
11536;DHT22;5824;49.336;8.652;2024-03-02T00:08:39;7.80;1.00
11536;DHT22;5824;49.336;8.652;2024-03-02T00:11:04;7.90;1.00
11536;DHT22;5824;49.336;8.652;2024-03-02T00:13:30;7.90;1.00
11536;DHT22;5824;49.336;8.652;2024-03-02T00:15:58;7.90;1.00
11536;DHT22;5824;49.336;8.652;2024-03-02T00:18:34;7.90;1.00
11536;DHT22;5824;49.336;8.652;2024-03-02T00:21:01;7.90;1.00
11536;DHT22;5824;49.336;8.652;2024-03-02T00:23:30;7.90;1.00
11536;DHT22;5824;49.336;8.652;2024-03-02T00:25:56;7.90;1.00
11536;DHT22;5824;49.336;8.652;2024-03-02T00:28:24;8.00;1.00
11536;DHT22;5824;49.336;8.652;2024-03-02T00:30:57;8.00;1.00
11536;DHT22;5824;49.336;8.652;2024-03-02T00:33:25;7.90;1.00
11536;DHT22;5824;49.336;8.652;2024-03-02T00:35:51;7.90;1.00
11536;DHT22;5824;49.336;8.652;2024-03-02T00:38:16;7.90;1.00
11536;DHT22;5824;49.336;8.652;2024-03-02T00:40:43;7.90;1.00
11536;DHT22;5824;49.336;8.652;2024-03-02T00:43:44;7.90;1.00
11536;DHT22;5824;49.336;8.652;2024-03-02T00:46:11;7.90;1.00
11536;DHT22;5824;49.336;8.652;2024-03-02T00:48:37;7.90;1.00
11536;DHT22;5824;49.336;8.652;2024-03-02T00:51:03;7.90;1.00
11536;DHT22;5824;49.336;8.652;2024-03-02T00:53:29;7.90;1.00
11536;DHT22;5824;49.336;8.652;2024-03-02T00:55:56;7.90;1.00
11536;DHT22;5824;49.336;8.652;2024-03-02T00:58:22;7.80;1.00
11536;DHT22;5824;49.336;8.652;2024-03-02T01:00:47;7.80;1.00
11536;DHT22;5824;49.336;8.652;2024-03-02T01:03:13;7.80;1.00
11536;DHT22;5824;49.336;8.652;2024-03-02T01:05:45;7.80;1.00
11536;DHT22;5824;49.336;8.652;2024-03-02T01:08:10;7.80;1.00
11536;DHT22;5824;49.336;8.652;2024-03-02T01:10:36;7.70;1.00
11536;DHT22;5824;49.336;8.652;2024-03-02T01:13:02;7.70;1.00
11536;DHT22;5824;49.336;8.652;2024-03-02T01:15:27;7.60;1.00
11536;DHT22;5824;49.336;8.652;2024-03-02T01:17:53;7.60;1.00
11536;DHT22;5824;49.336;8.652;2024-03-02T01:20:18;7.60;1.00
11536;DHT22;5824;49.336;8.652;2024-03-02T01:22:44;7.60;1.00
11536;DHT22;5824;49.336;8.652;2024-03-02T01:25:09;7.60;1.00
11536;DHT22;5824;49.336;8.652;2024-03-02T01:27:35;7.60;1.00
11536;DHT22;5824;49.336;8.652;2024-03-02T01:30:00;7.60;1.00
11536;DHT22;5824;49.336;8.652;2024-03-02T01:32:26;7.50;1.00
11536;DHT22;5824;49.336;8.652;2024-03-02T01:34:52;7.50;1.00
11536;DHT22;5824;49.336;8.652;2024-03-02T01:37:17;7.50;1.00
11536;DHT22;5824;49.336;8.652;2024-03-02T01:39:43;7.40;1.00
11536;DHT22;5824;49.336;8.652;2024-03-02T01:42:09;7.40;1.00
11536;DHT22;5824;49.336;8.652;2024-03-02T01:44:36;7.30;1.00
11536;DHT22;5824;49.336;8.652;2024-03-02T01:47:01;7.30;1.00
11536;DHT22;5824;49.336;8.652;2024-03-02T01:49:27;7.30;1.00
11536;DHT22;5824;49.336;8.652;2024-03-02T01:55:15;7.20;1.00
11536;DHT22;5824;49.336;8.652;2024-03-02T01:57:40;7.20;1.00
11536;DHT22;5824;49.336;8.652;2024-03-02T02:00:06;7.20;1.00
11536;DHT22;5824;49.336;8.652;2024-03-02T02:02:32;7.20;1.00
11536;DHT22;5824;49.336;8.652;2024-03-02T02:04:57;7.20;1.00
11536;DHT22;5824;49.336;8.652;2024-03-02T02:07:23;7.20;1.00
11536;DHT22;5824;49.336;8.652;2024-03-02T02:09:48;7.20;1.00
11536;DHT22;5824;49.336;8.652;2024-03-02T02:12:14;7.20;1.00
11536;DHT22;5824;49.336;8.652;2024-03-02T02:14:47;7.20;1.00
11536;DHT22;5824;49.336;8.652;2024-03-02T02:17:14;7.20;1.00
11536;DHT22;5824;49.336;8.652;2024-03-02T02:19:40;7.20;1.00
11536;DHT22;5824;49.336;8.652;2024-03-02T02:22:06;7.20;1.00
11536;DHT22;5824;49.336;8.652;2024-03-02T02:24:32;7.20;1.00
11536;DHT22;5824;49.336;8.652;2024-03-02T02:26:57;7.20;1.00
11536;DHT22;5824;49.336;8.652;2024-03-02T02:29:22;7.20;1.00
11536;DHT22;5824;49.336;8.652;2024-03-02T02:31:48;7.30;1.00
11536;DHT22;5824;49.336;8.652;2024-03-02T02:34:14;7.30;1.00
11536;DHT22;5824;49.336;8.652;2024-03-02T02:36:40;7.20;1.00
11536;DHT22;5824;49.336;8.652;2024-03-02T02:39:07;7.20;1.00
11536;DHT22;5824;49.336;8.652;2024-03-02T02:41:33;7.20;1.00
11536;DHT22;5824;49.336;8.652;2024-03-02T02:43:59;7.20;1.00
11536;DHT22;5824;49.336;8.652;2024-03-02T02:46:24;7.20;1.00
11536;DHT22;5824;49.336;8.652;2024-03-02T02:48:50;7.20;1.00
11536;DHT22;5824;49.336;8.652;2024-03-02T02:51:18;7.30;1.00
11536;DHT22;5824;49.336;8.652;2024-03-02T02:53:43;7.30;1.00
11536;DHT22;5824;49.336;8.652;2024-03-02T02:56:09;7.30;1.00
11536;DHT22;5824;49.336;8.652;2024-03-02T02:58:35;7.20;1.00
11536;DHT22;5824;49.336;8.652;2024-03-02T03:01:01;7.20;1.00
11536;DHT22;5824;49.336;8.652;2024-03-02T03:03:26;7.30;1.00
11536;DHT22;5824;49.336;8.652;2024-03-02T03:05:52;7.30;1.00
11536;DHT22;5824;49.336;8.652;2024-03-02T03:08:17;7.30;1.00
11536;DHT22;5824;49.336;8.652;2024-03-02T03:10:43;7.30;1.00
11536;DHT22;5824;49.336;8.652;2024-03-02T03:13:08;7.30;1.00
11536;DHT22;5824;49.336;8.652;2024-03-02T03:15:37;7.30;1.00
11536;DHT22;5824;49.336;8.652;2024-03-02T03:18:03;7.30;1.00
11536;DHT22;5824;49.336;8.652;2024-03-02T03:20:29;7.30;1.00
11536;DHT22;5824;49.336;8.652;2024-03-02T03:22:56;7.30;1.00
11536;DHT22;5824;49.336;8.652;2024-03-02T03:25:21;7.30;1.00
11536;DHT22;5824;49.336;8.652;2024-03-02T03:27:47;7.30;1.00
11536;DHT22;5824;49.336;8.652;2024-03-02T03:30:12;7.30;1.00
11536;DHT22;5824;49.336;8.652;2024-03-02T03:32:38;7.30;1.00
11536;DHT22;5824;49.336;8.652;2024-03-02T03:35:04;7.30;1.00
11536;DHT22;5824;49.336;8.652;2024-03-02T03:37:30;7.30;1.00
11536;DHT22;5824;49.336;8.652;2024-03-02T03:40:02;7.30;1.00
11536;DHT22;5824;49.336;8.652;2024-03-02T03:42:28;7.40;1.00
11536;DHT22;5824;49.336;8.652;2024-03-02T03:44:54;7.40;1.00
11536;DHT22;5824;49.336;8.652;2024-03-02T03:47:19;7.40;1.00
11536;DHT22;5824;49.336;8.652;2024-03-02T03:49:45;7.40;1.00
11536;DHT22;5824;49.336;8.652;2024-03-02T03:52:11;7.40;1.00
11536;DHT22;5824;49.336;8.652;2024-03-02T03:54:36;7.40;1.00
11536;DHT22;5824;49.336;8.652;2024-03-02T03:57:04;7.30;1.00
11536;DHT22;5824;49.336;8.652;2024-03-02T03:59:29;7.30;1.00
11536;DHT22;5824;49.336;8.652;2024-03-02T04:01:55;7.30;1.00
11536;DHT22;5824;49.336;8.652;2024-03-02T04:04:21;7.30;1.00
11536;DHT22;5824;49.336;8.652;2024-03-02T04:06:46;5.10;1.00
11536;DHT22;5824;49.336;8.652;2024-03-02T04:09:12;7.30;1.00
11536;DHT22;5824;49.336;8.652;2024-03-02T04:11:37;7.40;1.00
11536;DHT22;5824;49.336;8.652;2024-03-02T04:14:03;7.40;1.00
11536;DHT22;5824;49.336;8.652;2024-03-02T04:16:29;7.50;1.00
11536;DHT22;5824;49.336;8.652;2024-03-02T04:18:54;7.50;1.00
11536;DHT22;5824;49.336;8.652;2024-03-02T04:21:20;7.60;1.00
11536;DHT22;5824;49.336;8.652;2024-03-02T04:23:45;7.60;1.00
11536;DHT22;5824;49.336;8.652;2024-03-02T04:26:11;7.60;1.00
11536;DHT22;5824;49.336;8.652;2024-03-02T04:28:36;7.70;1.00
11536;DHT22;5824;49.336;8.652;2024-03-02T04:31:02;7.60;1.00
11536;DHT22;5824;49.336;8.652;2024-03-02T04:33:28;7.80;1.00
11536;DHT22;5824;49.336;8.652;2024-03-02T04:35:53;7.70;1.00
11536;DHT22;5824;49.336;8.652;2024-03-02T04:38:18;7.80;1.00
11536;DHT22;5824;49.336;8.652;2024-03-02T04:40:44;7.80;1.00
11536;DHT22;5824;49.336;8.652;2024-03-02T04:43:09;7.80;1.00
11536;DHT22;5824;49.336;8.652;2024-03-02T04:45:38;7.80;1.00
11536;DHT22;5824;49.336;8.652;2024-03-02T04:48:03;7.80;1.00
11536;DHT22;5824;49.336;8.652;2024-03-02T04:50:29;7.80;1.00
11536;DHT22;5824;49.336;8.652;2024-03-02T04:52:55;7.70;1.00
11536;DHT22;5824;49.336;8.652;2024-03-02T04:55:20;7.70;1.00
11536;DHT22;5824;49.336;8.652;2024-03-02T04:58:04;7.60;1.00
11536;DHT22;5824;49.336;8.652;2024-03-02T05:00:29;7.60;1.00
11536;DHT22;5824;49.336;8.652;2024-03-02T05:02:55;7.50;1.00
11536;DHT22;5824;49.336;8.652;2024-03-02T05:05:20;7.50;1.00
11536;DHT22;5824;49.336;8.652;2024-03-02T05:07:46;7.50;1.00
11536;DHT22;5824;49.336;8.652;2024-03-02T05:10:11;7.40;1.00
11536;DHT22;5824;49.336;8.652;2024-03-02T05:12:37;7.40;1.00
11536;DHT22;5824;49.336;8.652;2024-03-02T05:15:09;7.40;1.00
11536;DHT22;5824;49.336;8.652;2024-03-02T05:17:36;7.10;1.00
11536;DHT22;5824;49.336;8.652;2024-03-02T05:20:02;7.30;1.00
11536;DHT22;5824;49.336;8.652;2024-03-02T05:22:27;7.30;1.00
11536;DHT22;5824;49.336;8.652;2024-03-02T05:24:53;7.30;1.00
11536;DHT22;5824;49.336;8.652;2024-03-02T05:27:19;7.20;1.00
11536;DHT22;5824;49.336;8.652;2024-03-02T05:29:44;7.10;1.00
11536;DHT22;5824;49.336;8.652;2024-03-02T05:32:10;7.10;1.00
11536;DHT22;5824;49.336;8.652;2024-03-02T05:34:35;7.10;1.00
11536;DHT22;5824;49.336;8.652;2024-03-02T05:37:01;7.10;1.00
11536;DHT22;5824;49.336;8.652;2024-03-02T05:39:27;7.00;1.00
11536;DHT22;5824;49.336;8.652;2024-03-02T05:41:52;7.00;1.00
11536;DHT22;5824;49.336;8.652;2024-03-02T05:44:18;7.00;1.00
11536;DHT22;5824;49.336;8.652;2024-03-02T05:46:45;6.90;1.00
11536;DHT22;5824;49.336;8.652;2024-03-02T05:49:11;6.90;1.00
11536;DHT22;5824;49.336;8.652;2024-03-02T05:51:37;6.90;1.00
11536;DHT22;5824;49.336;8.652;2024-03-02T05:54:02;6.90;1.00
11536;DHT22;5824;49.336;8.652;2024-03-02T05:56:28;6.80;1.00
11536;DHT22;5824;49.336;8.652;2024-03-02T05:58:54;6.80;1.00
11536;DHT22;5824;49.336;8.652;2024-03-02T06:01:45;6.80;1.00
11536;DHT22;5824;49.336;8.652;2024-03-02T06:04:16;6.90;1.00
11536;DHT22;5824;49.336;8.652;2024-03-02T06:06:42;6.90;1.00
11536;DHT22;5824;49.336;8.652;2024-03-02T06:09:08;7.10;1.00
11536;DHT22;5824;49.336;8.652;2024-03-02T06:11:40;6.90;1.00
11536;DHT22;5824;49.336;8.652;2024-03-02T06:14:09;6.90;1.00
11536;DHT22;5824;49.336;8.652;2024-03-02T06:16:34;6.90;1.00
11536;DHT22;5824;49.336;8.652;2024-03-02T06:19:01;7.00;1.00
11536;DHT22;5824;49.336;8.652;2024-03-02T06:21:27;7.10;1.00
11536;DHT22;5824;49.336;8.652;2024-03-02T06:23:53;7.10;1.00
11536;DHT22;5824;49.336;8.652;2024-03-02T06:26:19;7.10;1.00
11536;DHT22;5824;49.336;8.652;2024-03-02T06:28:45;7.20;1.00
11536;DHT22;5824;49.336;8.652;2024-03-02T06:31:11;7.20;1.00
11536;DHT22;5824;49.336;8.652;2024-03-02T06:33:36;7.20;1.00
11536;DHT22;5824;49.336;8.652;2024-03-02T06:36:02;7.10;1.00
11536;DHT22;5824;49.336;8.652;2024-03-02T06:38:28;7.10;1.00
11536;DHT22;5824;49.336;8.652;2024-03-02T06:40:54;7.10;1.00
11536;DHT22;5824;49.336;8.652;2024-03-02T06:43:21;7.10;1.00
11536;DHT22;5824;49.336;8.652;2024-03-02T06:45:50;7.20;1.00
11536;DHT22;5824;49.336;8.652;2024-03-02T06:48:16;7.20;1.00
11536;DHT22;5824;49.336;8.652;2024-03-02T06:50:48;7.20;1.00
11536;DHT22;5824;49.336;8.652;2024-03-02T06:53:14;7.20;1.00
11536;DHT22;5824;49.336;8.652;2024-03-02T06:55:43;7.20;1.00
11536;DHT22;5824;49.336;8.652;2024-03-02T06:58:10;7.30;1.00
11536;DHT22;5824;49.336;8.652;2024-03-02T07:00:36;7.50;1.00
11536;DHT22;5824;49.336;8.652;2024-03-02T07:03:02;7.50;1.00
11536;DHT22;5824;49.336;8.652;2024-03-02T07:05:27;7.50;1.00
11536;DHT22;5824;49.336;8.652;2024-03-02T07:07:53;7.60;1.00
11536;DHT22;5824;49.336;8.652;2024-03-02T07:10:18;7.60;1.00
11536;DHT22;5824;49.336;8.652;2024-03-02T07:12:44;7.60;1.00
11536;DHT22;5824;49.336;8.652;2024-03-02T07:15:10;7.60;1.00
11536;DHT22;5824;49.336;8.652;2024-03-02T07:17:53;7.70;1.00
11536;DHT22;5824;49.336;8.652;2024-03-02T07:20:19;7.70;1.00
11536;DHT22;5824;49.336;8.652;2024-03-02T07:22:44;7.70;1.00
11536;DHT22;5824;49.336;8.652;2024-03-02T07:25:10;7.70;1.00
11536;DHT22;5824;49.336;8.652;2024-03-02T07:27:35;7.70;1.00
11536;DHT22;5824;49.336;8.652;2024-03-02T07:30:02;7.70;1.00
11536;DHT22;5824;49.336;8.652;2024-03-02T07:32:28;7.70;1.00
11536;DHT22;5824;49.336;8.652;2024-03-02T07:34:54;7.60;1.00
11536;DHT22;5824;49.336;8.652;2024-03-02T07:37:19;7.70;1.00
11536;DHT22;5824;49.336;8.652;2024-03-02T07:39:45;7.70;1.00
11536;DHT22;5824;49.336;8.652;2024-03-02T07:42:11;7.80;1.00
11536;DHT22;5824;49.336;8.652;2024-03-02T07:44:36;7.90;1.00
11536;DHT22;5824;49.336;8.652;2024-03-02T07:47:02;7.90;1.00
11536;DHT22;5824;49.336;8.652;2024-03-02T07:49:28;8.00;1.00
11536;DHT22;5824;49.336;8.652;2024-03-02T07:51:53;8.10;1.00
11536;DHT22;5824;49.336;8.652;2024-03-02T07:54:19;8.20;1.00
11536;DHT22;5824;49.336;8.652;2024-03-02T07:56:45;8.40;1.00
11536;DHT22;5824;49.336;8.652;2024-03-02T07:59:10;8.40;1.00
11536;DHT22;5824;49.336;8.652;2024-03-02T08:01:36;8.50;1.00
11536;DHT22;5824;49.336;8.652;2024-03-02T08:04:02;8.70;1.00
11536;DHT22;5824;49.336;8.652;2024-03-02T08:06:30;8.80;1.00
11536;DHT22;5824;49.336;8.652;2024-03-02T08:08:57;9.00;1.00
11536;DHT22;5824;49.336;8.652;2024-03-02T08:11:23;9.10;1.00
11536;DHT22;5824;49.336;8.652;2024-03-02T08:13:49;9.20;1.00
11536;DHT22;5824;49.336;8.652;2024-03-02T08:16:15;9.40;1.00
11536;DHT22;5824;49.336;8.652;2024-03-02T08:18:42;9.50;1.00
11536;DHT22;5824;49.336;8.652;2024-03-02T08:21:07;9.60;1.00
11536;DHT22;5824;49.336;8.652;2024-03-02T08:23:34;10.20;1.00
11536;DHT22;5824;49.336;8.652;2024-03-02T08:26:00;10.20;1.00
11536;DHT22;5824;49.336;8.652;2024-03-02T08:28:25;10.90;1.00
11536;DHT22;5824;49.336;8.652;2024-03-02T08:30:51;11.40;1.00
11536;DHT22;5824;49.336;8.652;2024-03-02T08:33:16;11.70;1.00
11536;DHT22;5824;49.336;8.652;2024-03-02T08:35:42;12.10;1.00
11536;DHT22;5824;49.336;8.652;2024-03-02T08:38:07;12.40;1.00
11536;DHT22;5824;49.336;8.652;2024-03-02T08:40:33;12.60;1.00
11536;DHT22;5824;49.336;8.652;2024-03-02T08:42:58;12.80;1.00
11536;DHT22;5824;49.336;8.652;2024-03-02T08:45:24;13.00;1.00
11536;DHT22;5824;49.336;8.652;2024-03-02T08:47:49;13.00;1.00
11536;DHT22;5824;49.336;8.652;2024-03-02T08:50:15;12.90;1.00
11536;DHT22;5824;49.336;8.652;2024-03-02T08:52:40;12.50;1.00
11536;DHT22;5824;49.336;8.652;2024-03-02T08:55:06;12.20;1.00
11536;DHT22;5824;49.336;8.652;2024-03-02T08:57:32;12.30;1.00
11536;DHT22;5824;49.336;8.652;2024-03-02T08:59:59;13.50;1.00
11536;DHT22;5824;49.336;8.652;2024-03-02T09:02:24;15.20;1.00
11536;DHT22;5824;49.336;8.652;2024-03-02T09:04:50;17.20;1.00
11536;DHT22;5824;49.336;8.652;2024-03-02T09:07:16;18.10;1.00
11536;DHT22;5824;49.336;8.652;2024-03-02T09:09:41;18.90;1.00
11536;DHT22;5824;49.336;8.652;2024-03-02T09:12:07;20.10;1.00
11536;DHT22;5824;49.336;8.652;2024-03-02T09:14:33;21.20;1.00
11536;DHT22;5824;49.336;8.652;2024-03-02T09:16:58;22.30;1.00
11536;DHT22;5824;49.336;8.652;2024-03-02T09:19:24;22.70;1.00
11536;DHT22;5824;49.336;8.652;2024-03-02T09:21:49;23.30;1.00
11536;DHT22;5824;49.336;8.652;2024-03-02T09:24:15;24.10;1.00
11536;DHT22;5824;49.336;8.652;2024-03-02T09:26:41;24.40;1.00
11536;DHT22;5824;49.336;8.652;2024-03-02T09:29:06;24.90;1.00
11536;DHT22;5824;49.336;8.652;2024-03-02T09:31:32;25.30;1.00
11536;DHT22;5824;49.336;8.652;2024-03-02T09:33:57;24.50;1.00
11536;DHT22;5824;49.336;8.652;2024-03-02T09:36:23;24.50;1.00
11536;DHT22;5824;49.336;8.652;2024-03-02T09:38:49;24.70;1.00
11536;DHT22;5824;49.336;8.652;2024-03-02T09:41:15;25.50;1.00
11536;DHT22;5824;49.336;8.652;2024-03-02T09:43:41;26.60;1.00
11536;DHT22;5824;49.336;8.652;2024-03-02T09:46:09;26.60;1.00
11536;DHT22;5824;49.336;8.652;2024-03-02T09:48:35;25.70;1.00
11536;DHT22;5824;49.336;8.652;2024-03-02T09:51:01;25.80;1.00
11536;DHT22;5824;49.336;8.652;2024-03-02T09:53:32;25.70;1.00
11536;DHT22;5824;49.336;8.652;2024-03-02T09:55:59;25.80;1.00
11536;DHT22;5824;49.336;8.652;2024-03-02T09:58:24;26.00;1.00
11536;DHT22;5824;49.336;8.652;2024-03-02T10:00:50;26.30;1.00
11536;DHT22;5824;49.336;8.652;2024-03-02T10:03:16;26.40;1.00
11536;DHT22;5824;49.336;8.652;2024-03-02T10:05:43;27.00;1.00
11536;DHT22;5824;49.336;8.652;2024-03-02T10:08:09;27.80;1.00
11536;DHT22;5824;49.336;8.652;2024-03-02T10:10:38;27.80;1.00
11536;DHT22;5824;49.336;8.652;2024-03-02T10:13:12;27.40;1.00
11536;DHT22;5824;49.336;8.652;2024-03-02T10:15:39;27.60;1.00
11536;DHT22;5824;49.336;8.652;2024-03-02T10:18:11;27.50;1.00
11536;DHT22;5824;49.336;8.652;2024-03-02T10:20:38;27.50;1.00
11536;DHT22;5824;49.336;8.652;2024-03-02T10:23:11;27.30;1.00
11536;DHT22;5824;49.336;8.652;2024-03-02T10:25:37;27.90;1.00
11536;DHT22;5824;49.336;8.652;2024-03-02T10:28:03;27.60;1.00
11536;DHT22;5824;49.336;8.652;2024-03-02T10:30:31;26.90;1.00
11536;DHT22;5824;49.336;8.652;2024-03-02T10:32:56;26.90;1.00
11536;DHT22;5824;49.336;8.652;2024-03-02T10:35:23;26.70;1.00
11536;DHT22;5824;49.336;8.652;2024-03-02T10:37:49;26.40;1.00
11536;DHT22;5824;49.336;8.652;2024-03-02T10:40:14;26.70;1.00
11536;DHT22;5824;49.336;8.652;2024-03-02T10:42:41;26.80;1.00
11536;DHT22;5824;49.336;8.652;2024-03-02T10:45:09;28.20;1.00
11536;DHT22;5824;49.336;8.652;2024-03-02T10:47:37;28.70;1.00
11536;DHT22;5824;49.336;8.652;2024-03-02T10:50:04;29.20;1.00
11536;DHT22;5824;49.336;8.652;2024-03-02T10:52:34;29.20;1.00
11536;DHT22;5824;49.336;8.652;2024-03-02T10:55:00;28.80;1.00
11536;DHT22;5824;49.336;8.652;2024-03-02T10:57:27;28.30;1.00
11536;DHT22;5824;49.336;8.652;2024-03-02T10:59:57;28.70;1.00
11536;DHT22;5824;49.336;8.652;2024-03-02T11:02:27;29.20;1.00
11536;DHT22;5824;49.336;8.652;2024-03-02T11:04:55;29.90;1.00
11536;DHT22;5824;49.336;8.652;2024-03-02T11:07:23;29.80;1.00
11536;DHT22;5824;49.336;8.652;2024-03-02T11:10:01;29.10;1.00
11536;DHT22;5824;49.336;8.652;2024-03-02T11:12:36;28.90;1.00
11536;DHT22;5824;49.336;8.652;2024-03-02T11:15:06;28.90;1.00
11536;DHT22;5824;49.336;8.652;2024-03-02T11:17:35;29.50;1.00
11536;DHT22;5824;49.336;8.652;2024-03-02T11:20:01;29.80;1.00
11536;DHT22;5824;49.336;8.652;2024-03-02T11:22:28;30.40;1.00
11536;DHT22;5824;49.336;8.652;2024-03-02T11:24:53;29.60;1.00
11536;DHT22;5824;49.336;8.652;2024-03-02T11:28:01;29.70;1.00
11536;DHT22;5824;49.336;8.652;2024-03-02T11:33:00;29.70;1.00
11536;DHT22;5824;49.336;8.652;2024-03-02T11:35:26;30.00;1.00
11536;DHT22;5824;49.336;8.652;2024-03-02T11:37:52;30.10;1.00
11536;DHT22;5824;49.336;8.652;2024-03-02T11:40:28;30.10;1.00
11536;DHT22;5824;49.336;8.652;2024-03-02T11:42:54;30.50;1.00
11536;DHT22;5824;49.336;8.652;2024-03-02T11:45:24;31.30;1.00
11536;DHT22;5824;49.336;8.652;2024-03-02T11:47:51;32.40;1.00
11536;DHT22;5824;49.336;8.652;2024-03-02T11:50:46;33.80;1.00
11536;DHT22;5824;49.336;8.652;2024-03-02T11:53:12;34.10;1.00
11536;DHT22;5824;49.336;8.652;2024-03-02T11:55:39;34.10;1.00
11536;DHT22;5824;49.336;8.652;2024-03-02T11:58:15;33.10;1.00
11536;DHT22;5824;49.336;8.652;2024-03-02T12:00:46;33.10;1.00
11536;DHT22;5824;49.336;8.652;2024-03-02T12:03:13;33.10;1.00
11536;DHT22;5824;49.336;8.652;2024-03-02T12:05:39;34.00;1.00
11536;DHT22;5824;49.336;8.652;2024-03-02T12:08:08;34.20;1.00
11536;DHT22;5824;49.336;8.652;2024-03-02T12:10:35;34.10;1.00
11536;DHT22;5824;49.336;8.652;2024-03-02T12:13:03;34.20;1.00
11536;DHT22;5824;49.336;8.652;2024-03-02T12:15:31;33.80;1.00
11536;DHT22;5824;49.336;8.652;2024-03-02T12:18:00;33.70;1.00
11536;DHT22;5824;49.336;8.652;2024-03-02T12:20:28;33.90;1.00
11536;DHT22;5824;49.336;8.652;2024-03-02T12:22:56;33.50;1.00
11536;DHT22;5824;49.336;8.652;2024-03-02T12:25:23;32.90;1.00
11536;DHT22;5824;49.336;8.652;2024-03-02T12:27:51;32.40;1.00
11536;DHT22;5824;49.336;8.652;2024-03-02T12:30:18;32.80;1.00
11536;DHT22;5824;49.336;8.652;2024-03-02T12:32:44;33.40;1.00
11536;DHT22;5824;49.336;8.652;2024-03-02T12:35:10;33.70;1.00
11536;DHT22;5824;49.336;8.652;2024-03-02T12:37:46;34.20;1.00
11536;DHT22;5824;49.336;8.652;2024-03-02T12:40:12;35.80;1.00
11536;DHT22;5824;49.336;8.652;2024-03-02T12:42:39;36.50;1.00
11536;DHT22;5824;49.336;8.652;2024-03-02T12:45:05;37.00;1.00
11536;DHT22;5824;49.336;8.652;2024-03-02T12:47:32;36.50;1.00
11536;DHT22;5824;49.336;8.652;2024-03-02T12:49:58;35.90;1.00
11536;DHT22;5824;49.336;8.652;2024-03-02T12:52:24;35.80;1.00
11536;DHT22;5824;49.336;8.652;2024-03-02T12:54:50;36.00;1.00
11536;DHT22;5824;49.336;8.652;2024-03-02T12:57:19;35.70;1.00
11536;DHT22;5824;49.336;8.652;2024-03-02T12:59:48;35.40;1.00
11536;DHT22;5824;49.336;8.652;2024-03-02T13:02:19;36.10;1.00
11536;DHT22;5824;49.336;8.652;2024-03-02T13:04:52;35.00;1.00
11536;DHT22;5824;49.336;8.652;2024-03-02T13:07:20;34.70;1.00
11536;DHT22;5824;49.336;8.652;2024-03-02T13:09:45;34.00;1.00
11536;DHT22;5824;49.336;8.652;2024-03-02T13:12:11;34.50;1.00
11536;DHT22;5824;49.336;8.652;2024-03-02T13:14:37;35.30;1.00
11536;DHT22;5824;49.336;8.652;2024-03-02T13:17:03;35.10;1.00
11536;DHT22;5824;49.336;8.652;2024-03-02T13:19:30;33.60;1.00
11536;DHT22;5824;49.336;8.652;2024-03-02T13:21:57;32.60;1.00
11536;DHT22;5824;49.336;8.652;2024-03-02T13:24:23;32.00;1.00
11536;DHT22;5824;49.336;8.652;2024-03-02T13:26:51;31.70;1.00
11536;DHT22;5824;49.336;8.652;2024-03-02T13:29:21;31.40;1.00
11536;DHT22;5824;49.336;8.652;2024-03-02T13:31:47;30.70;1.00
11536;DHT22;5824;49.336;8.652;2024-03-02T13:34:12;28.90;1.00
11536;DHT22;5824;49.336;8.652;2024-03-02T13:36:38;28.70;1.00
11536;DHT22;5824;49.336;8.652;2024-03-02T13:39:04;27.90;1.00
11536;DHT22;5824;49.336;8.652;2024-03-02T13:41:35;27.20;1.00
11536;DHT22;5824;49.336;8.652;2024-03-02T13:44:01;26.80;1.00
11536;DHT22;5824;49.336;8.652;2024-03-02T13:46:27;26.80;1.00
11536;DHT22;5824;49.336;8.652;2024-03-02T13:48:54;26.90;1.00
11536;DHT22;5824;49.336;8.652;2024-03-02T13:51:20;26.60;1.00
11536;DHT22;5824;49.336;8.652;2024-03-02T13:53:45;26.90;1.00
11536;DHT22;5824;49.336;8.652;2024-03-02T13:56:11;27.00;1.00
11536;DHT22;5824;49.336;8.652;2024-03-02T13:58:37;26.30;1.00
11536;DHT22;5824;49.336;8.652;2024-03-02T14:01:03;25.50;1.00
11536;DHT22;5824;49.336;8.652;2024-03-02T14:03:30;25.20;1.00
11536;DHT22;5824;49.336;8.652;2024-03-02T14:05:55;25.20;1.00
11536;DHT22;5824;49.336;8.652;2024-03-02T14:08:21;24.80;1.00
11536;DHT22;5824;49.336;8.652;2024-03-02T14:10:47;23.90;1.00
11536;DHT22;5824;49.336;8.652;2024-03-02T14:13:12;23.40;1.00
11536;DHT22;5824;49.336;8.652;2024-03-02T14:15:38;22.70;1.00
11536;DHT22;5824;49.336;8.652;2024-03-02T14:18:06;22.40;1.00
11536;DHT22;5824;49.336;8.652;2024-03-02T14:20:32;22.10;1.00
11536;DHT22;5824;49.336;8.652;2024-03-02T14:22:58;21.50;1.00
11536;DHT22;5824;49.336;8.652;2024-03-02T14:25:25;21.10;1.00
11536;DHT22;5824;49.336;8.652;2024-03-02T14:27:50;21.00;1.00
11536;DHT22;5824;49.336;8.652;2024-03-02T14:30:16;20.80;1.00
11536;DHT22;5824;49.336;8.652;2024-03-02T14:32:42;20.70;1.00
11536;DHT22;5824;49.336;8.652;2024-03-02T14:35:07;20.60;1.00
11536;DHT22;5824;49.336;8.652;2024-03-02T14:37:36;20.50;1.00
11536;DHT22;5824;49.336;8.652;2024-03-02T14:40:02;20.50;1.00
11536;DHT22;5824;49.336;8.652;2024-03-02T14:42:27;20.30;1.00
11536;DHT22;5824;49.336;8.652;2024-03-02T14:44:56;20.20;1.00
11536;DHT22;5824;49.336;8.652;2024-03-02T14:47:22;20.20;1.00
11536;DHT22;5824;49.336;8.652;2024-03-02T14:49:48;20.40;1.00
11536;DHT22;5824;49.336;8.652;2024-03-02T14:52:13;20.30;1.00
11536;DHT22;5824;49.336;8.652;2024-03-02T14:54:39;20.50;1.00
11536;DHT22;5824;49.336;8.652;2024-03-02T14:57:05;20.40;1.00
11536;DHT22;5824;49.336;8.652;2024-03-02T14:59:30;20.10;1.00
11536;DHT22;5824;49.336;8.652;2024-03-02T15:01:56;19.90;1.00
11536;DHT22;5824;49.336;8.652;2024-03-02T15:04:22;19.30;1.00
11536;DHT22;5824;49.336;8.652;2024-03-02T15:06:48;19.30;1.00
11536;DHT22;5824;49.336;8.652;2024-03-02T15:09:13;19.10;1.00
11536;DHT22;5824;49.336;8.652;2024-03-02T15:14:05;18.70;1.00
11536;DHT22;5824;49.336;8.652;2024-03-02T15:16:31;18.60;1.00
11536;DHT22;5824;49.336;8.652;2024-03-02T15:18:56;18.60;1.00
11536;DHT22;5824;49.336;8.652;2024-03-02T15:21:22;18.40;1.00
11536;DHT22;5824;49.336;8.652;2024-03-02T15:23:47;18.00;1.00
11536;DHT22;5824;49.336;8.652;2024-03-02T15:26:13;18.00;1.00
11536;DHT22;5824;49.336;8.652;2024-03-02T15:28:38;17.80;1.00
11536;DHT22;5824;49.336;8.652;2024-03-02T15:31:04;17.60;1.00
11536;DHT22;5824;49.336;8.652;2024-03-02T15:33:30;17.40;1.00
11536;DHT22;5824;49.336;8.652;2024-03-02T15:35:58;17.50;1.00
11536;DHT22;5824;49.336;8.652;2024-03-02T15:38:25;17.30;1.00
11536;DHT22;5824;49.336;8.652;2024-03-02T15:40:50;17.20;1.00
11536;DHT22;5824;49.336;8.652;2024-03-02T15:43:16;17.10;1.00
11536;DHT22;5824;49.336;8.652;2024-03-02T15:45:41;17.00;1.00
11536;DHT22;5824;49.336;8.652;2024-03-02T15:48:07;17.00;1.00
11536;DHT22;5824;49.336;8.652;2024-03-02T15:50:32;17.00;1.00
11536;DHT22;5824;49.336;8.652;2024-03-02T15:52:58;16.90;1.00
11536;DHT22;5824;49.336;8.652;2024-03-02T15:55:28;17.20;1.00
11536;DHT22;5824;49.336;8.652;2024-03-02T15:57:53;16.80;1.00
11536;DHT22;5824;49.336;8.652;2024-03-02T16:00:19;16.80;1.00
11536;DHT22;5824;49.336;8.652;2024-03-02T16:02:44;16.70;1.00
11536;DHT22;5824;49.336;8.652;2024-03-02T16:05:10;16.70;1.00
11536;DHT22;5824;49.336;8.652;2024-03-02T16:07:36;16.60;1.00
11536;DHT22;5824;49.336;8.652;2024-03-02T16:10:02;16.50;1.00
11536;DHT22;5824;49.336;8.652;2024-03-02T16:12:32;16.50;1.00
11536;DHT22;5824;49.336;8.652;2024-03-02T16:14:58;16.40;1.00